Oswego, New York
Current Conditions -  °F | °C
As of 7:54 AM on Friday 24 Oct 2014 (Local Time) from KFZY Reporting Station
Clear Clear  
Wind Chill: 44°   Ceiling: Unl
Heat Index: 47°   Visibility: 10mi
Dew Point: 44°   Wind: 7mph
Humidity: 90%   Direction: 280°W
Pressure: 29.94"   Gusts: NA
Location:  43.46°N, 76.51°W
Report Text: KFZY 241154Z AUTO 28006KT 10SM CLR 08/07 A2994 RMK AO2 SLP140 60001 70001 T00830067 10094 20078 56005
Loading
Personal Weather Stations






























Interactive Weather Map
Tropical Storm Tracking
New forecast layout! Learn more

10-Day Weather Forecast

Advertisements
Track Severe Weather on mobile